sensor_id;sensor_type;location;lat;lon;timestamp;temperature;humidity
6357;DHT22;3211;53.452;-2.264;2023-03-14T00:00:12;6.50;99.90
6357;DHT22;3211;53.452;-2.264;2023-03-14T00:02:40;6.40;99.90
6357;DHT22;3211;53.452;-2.264;2023-03-14T00:05:09;6.50;99.90
6357;DHT22;3211;53.452;-2.264;2023-03-14T00:07:38;6.50;99.90
6357;DHT22;3211;53.452;-2.264;2023-03-14T00:10:07;6.60;99.90
6357;DHT22;3211;53.452;-2.264;2023-03-14T00:12:35;6.50;99.90
6357;DHT22;3211;53.452;-2.264;2023-03-14T00:15:02;6.60;99.90
6357;DHT22;3211;53.452;-2.264;2023-03-14T00:17:30;6.50;99.90
6357;DHT22;3211;53.452;-2.264;2023-03-14T00:19:57;6.50;99.90
6357;DHT22;3211;53.452;-2.264;2023-03-14T00:22:35;6.50;99.90
6357;DHT22;3211;53.452;-2.264;2023-03-14T00:25:03;6.50;99.90
6357;DHT22;3211;53.452;-2.264;2023-03-14T00:27:30;6.40;99.90
6357;DHT22;3211;53.452;-2.264;2023-03-14T00:29:57;6.50;99.90
6357;DHT22;3211;53.452;-2.264;2023-03-14T00:32:25;6.50;99.90
6357;DHT22;3211;53.452;-2.264;2023-03-14T00:34:52;6.60;99.90
6357;DHT22;3211;53.452;-2.264;2023-03-14T00:37:19;6.50;99.90
6357;DHT22;3211;53.452;-2.264;2023-03-14T00:39:47;6.40;99.90
6357;DHT22;3211;53.452;-2.264;2023-03-14T00:42:14;6.30;99.90
6357;DHT22;3211;53.452;-2.264;2023-03-14T00:44:41;6.40;99.90
6357;DHT22;3211;53.452;-2.264;2023-03-14T00:47:08;6.50;99.90
6357;DHT22;3211;53.452;-2.264;2023-03-14T00:49:35;6.60;99.90
6357;DHT22;3211;53.452;-2.264;2023-03-14T00:52:02;6.50;99.90
6357;DHT22;3211;53.452;-2.264;2023-03-14T00:54:29;6.50;99.90
6357;DHT22;3211;53.452;-2.264;2023-03-14T00:56:57;6.60;99.90
6357;DHT22;3211;53.452;-2.264;2023-03-14T00:59:24;6.70;99.90
6357;DHT22;3211;53.452;-2.264;2023-03-14T01:01:51;6.60;99.90
6357;DHT22;3211;53.452;-2.264;2023-03-14T01:04:18;6.50;99.90
6357;DHT22;3211;53.452;-2.264;2023-03-14T01:06:45;6.30;99.90
6357;DHT22;3211;53.452;-2.264;2023-03-14T01:09:12;6.00;99.90
6357;DHT22;3211;53.452;-2.264;2023-03-14T01:11:38;6.20;99.90
6357;DHT22;3211;53.452;-2.264;2023-03-14T01:14:07;6.10;99.90
6357;DHT22;3211;53.452;-2.264;2023-03-14T01:16:34;6.10;99.90
6357;DHT22;3211;53.452;-2.264;2023-03-14T01:19:02;6.10;99.90
6357;DHT22;3211;53.452;-2.264;2023-03-14T01:21:32;6.10;99.90
6357;DHT22;3211;53.452;-2.264;2023-03-14T01:24:00;6.10;99.90
6357;DHT22;3211;53.452;-2.264;2023-03-14T01:26:30;6.20;99.90
6357;DHT22;3211;53.452;-2.264;2023-03-14T01:28:58;6.10;99.90
6357;DHT22;3211;53.452;-2.264;2023-03-14T01:31:26;6.10;99.90
6357;DHT22;3211;53.452;-2.264;2023-03-14T01:33:53;6.00;99.90
6357;DHT22;3211;53.452;-2.264;2023-03-14T01:36:20;6.10;99.90
6357;DHT22;3211;53.452;-2.264;2023-03-14T01:38:47;6.20;99.90
6357;DHT22;3211;53.452;-2.264;2023-03-14T01:41:17;6.00;99.90
6357;DHT22;3211;53.452;-2.264;2023-03-14T01:43:44;6.00;99.90
6357;DHT22;3211;53.452;-2.264;2023-03-14T01:46:24;5.90;99.90
6357;DHT22;3211;53.452;-2.264;2023-03-14T01:48:59;6.00;99.90
6357;DHT22;3211;53.452;-2.264;2023-03-14T01:51:32;5.90;99.90
6357;DHT22;3211;53.452;-2.264;2023-03-14T01:54:06;5.80;99.90
6357;DHT22;3211;53.452;-2.264;2023-03-14T01:56:35;5.90;99.90
6357;DHT22;3211;53.452;-2.264;2023-03-14T01:59:04;5.80;99.90
6357;DHT22;3211;53.452;-2.264;2023-03-14T02:01:33;5.60;99.90
6357;DHT22;3211;53.452;-2.264;2023-03-14T02:04:04;5.60;99.90
6357;DHT22;3211;53.452;-2.264;2023-03-14T02:06:39;5.50;99.90
6357;DHT22;3211;53.452;-2.264;2023-03-14T02:09:07;5.60;99.90
6357;DHT22;3211;53.452;-2.264;2023-03-14T02:11:34;5.40;99.90
6357;DHT22;3211;53.452;-2.264;2023-03-14T02:14:01;5.50;99.90
6357;DHT22;3211;53.452;-2.264;2023-03-14T02:16:29;5.60;99.90
6357;DHT22;3211;53.452;-2.264;2023-03-14T02:18:56;5.40;99.90
6357;DHT22;3211;53.452;-2.264;2023-03-14T02:21:34;5.30;99.90
6357;DHT22;3211;53.452;-2.264;2023-03-14T02:24:09;5.00;99.90
6357;DHT22;3211;53.452;-2.264;2023-03-14T02:26:43;5.10;99.90
6357;DHT22;3211;53.452;-2.264;2023-03-14T02:29:13;5.10;99.90
6357;DHT22;3211;53.452;-2.264;2023-03-14T02:31:40;5.20;99.90
6357;DHT22;3211;53.452;-2.264;2023-03-14T02:34:07;5.10;99.90
6357;DHT22;3211;53.452;-2.264;2023-03-14T02:36:34;5.20;99.90
6357;DHT22;3211;53.452;-2.264;2023-03-14T02:39:07;5.10;99.90
6357;DHT22;3211;53.452;-2.264;2023-03-14T02:41:34;5.20;99.90
6357;DHT22;3211;53.452;-2.264;2023-03-14T02:44:01;5.20;99.90
6357;DHT22;3211;53.452;-2.264;2023-03-14T02:46:30;5.00;99.90
6357;DHT22;3211;53.452;-2.264;2023-03-14T02:49:00;5.10;99.90
6357;DHT22;3211;53.452;-2.264;2023-03-14T02:51:28;5.00;99.90
6357;DHT22;3211;53.452;-2.264;2023-03-14T02:53:56;4.90;99.90
6357;DHT22;3211;53.452;-2.264;2023-03-14T02:56:23;5.00;99.90
6357;DHT22;3211;53.452;-2.264;2023-03-14T02:58:50;5.10;99.90
6357;DHT22;3211;53.452;-2.264;2023-03-14T03:01:17;5.10;99.90
6357;DHT22;3211;53.452;-2.264;2023-03-14T03:03:45;5.00;99.90
6357;DHT22;3211;53.452;-2.264;2023-03-14T03:06:12;5.00;99.90
6357;DHT22;3211;53.452;-2.264;2023-03-14T03:08:39;5.10;99.90
6357;DHT22;3211;53.452;-2.264;2023-03-14T03:11:06;5.00;99.90
6357;DHT22;3211;53.452;-2.264;2023-03-14T03:13:33;5.00;99.90
6357;DHT22;3211;53.452;-2.264;2023-03-14T03:16:00;5.10;99.90
6357;DHT22;3211;53.452;-2.264;2023-03-14T03:18:27;5.10;99.90
6357;DHT22;3211;53.452;-2.264;2023-03-14T03:20:59;5.20;99.90
6357;DHT22;3211;53.452;-2.264;2023-03-14T03:23:26;5.00;99.90
6357;DHT22;3211;53.452;-2.264;2023-03-14T03:25:53;5.00;99.90
6357;DHT22;3211;53.452;-2.264;2023-03-14T03:28:20;4.60;99.90
6357;DHT22;3211;53.452;-2.264;2023-03-14T03:30:47;4.70;99.90
6357;DHT22;3211;53.452;-2.264;2023-03-14T03:33:14;4.60;99.90
6357;DHT22;3211;53.452;-2.264;2023-03-14T03:35:45;4.40;99.90
6357;DHT22;3211;53.452;-2.264;2023-03-14T03:38:14;4.50;99.90
6357;DHT22;3211;53.452;-2.264;2023-03-14T03:40:41;4.60;99.90
6357;DHT22;3211;53.452;-2.264;2023-03-14T03:43:08;4.70;99.90
6357;DHT22;3211;53.452;-2.264;2023-03-14T03:45:35;4.30;99.90
6357;DHT22;3211;53.452;-2.264;2023-03-14T03:48:02;4.10;99.90
6357;DHT22;3211;53.452;-2.264;2023-03-14T03:50:29;4.40;99.90
6357;DHT22;3211;53.452;-2.264;2023-03-14T03:52:56;4.40;99.90
6357;DHT22;3211;53.452;-2.264;2023-03-14T03:55:24;4.30;99.90
6357;DHT22;3211;53.452;-2.264;2023-03-14T03:57:53;4.10;99.90
6357;DHT22;3211;53.452;-2.264;2023-03-14T04:00:20;4.20;99.90
6357;DHT22;3211;53.452;-2.264;2023-03-14T04:02:47;4.40;99.90
6357;DHT22;3211;53.452;-2.264;2023-03-14T04:05:14;4.30;99.90
6357;DHT22;3211;53.452;-2.264;2023-03-14T04:07:41;4.40;99.90
6357;DHT22;3211;53.452;-2.264;2023-03-14T04:10:09;4.70;99.90
6357;DHT22;3211;53.452;-2.264;2023-03-14T04:12:37;4.60;99.90
6357;DHT22;3211;53.452;-2.264;2023-03-14T04:15:05;4.70;99.90
6357;DHT22;3211;53.452;-2.264;2023-03-14T04:17:32;4.70;99.90
6357;DHT22;3211;53.452;-2.264;2023-03-14T04:19:59;4.70;99.90
6357;DHT22;3211;53.452;-2.264;2023-03-14T04:22:26;4.80;99.90
6357;DHT22;3211;53.452;-2.264;2023-03-14T04:24:53;4.80;99.90
6357;DHT22;3211;53.452;-2.264;2023-03-14T04:27:20;4.60;99.90
6357;DHT22;3211;53.452;-2.264;2023-03-14T04:29:48;4.40;99.90
6357;DHT22;3211;53.452;-2.264;2023-03-14T04:32:15;4.40;99.90
6357;DHT22;3211;53.452;-2.264;2023-03-14T04:34:42;4.30;99.90
6357;DHT22;3211;53.452;-2.264;2023-03-14T04:37:09;4.40;99.90
6357;DHT22;3211;53.452;-2.264;2023-03-14T04:39:36;4.40;99.90
6357;DHT22;3211;53.452;-2.264;2023-03-14T04:42:03;4.30;99.90
6357;DHT22;3211;53.452;-2.264;2023-03-14T04:44:30;4.40;99.90
6357;DHT22;3211;53.452;-2.264;2023-03-14T04:46:58;4.40;99.90
6357;DHT22;3211;53.452;-2.264;2023-03-14T04:49:25;4.60;99.90
6357;DHT22;3211;53.452;-2.264;2023-03-14T04:51:52;4.40;99.90
6357;DHT22;3211;53.452;-2.264;2023-03-14T04:54:19;4.50;99.90
6357;DHT22;3211;53.452;-2.264;2023-03-14T04:56:46;4.50;99.90
6357;DHT22;3211;53.452;-2.264;2023-03-14T04:59:13;4.50;99.90
6357;DHT22;3211;53.452;-2.264;2023-03-14T05:01:40;4.50;99.90
6357;DHT22;3211;53.452;-2.264;2023-03-14T05:04:08;4.50;99.90
6357;DHT22;3211;53.452;-2.264;2023-03-14T05:06:35;4.50;99.90
6357;DHT22;3211;53.452;-2.264;2023-03-14T05:09:02;4.60;99.90
6357;DHT22;3211;53.452;-2.264;2023-03-14T05:11:30;4.80;99.90
6357;DHT22;3211;53.452;-2.264;2023-03-14T05:13:58;4.70;99.90
6357;DHT22;3211;53.452;-2.264;2023-03-14T05:16:25;4.70;99.90
6357;DHT22;3211;53.452;-2.264;2023-03-14T05:18:52;4.60;99.90
6357;DHT22;3211;53.452;-2.264;2023-03-14T05:21:20;4.70;99.90
6357;DHT22;3211;53.452;-2.264;2023-03-14T05:23:47;4.70;99.90
6357;DHT22;3211;53.452;-2.264;2023-03-14T05:26:14;4.60;99.90
6357;DHT22;3211;53.452;-2.264;2023-03-14T05:28:42;4.70;99.90
6357;DHT22;3211;53.452;-2.264;2023-03-14T05:31:09;4.60;99.90
6357;DHT22;3211;53.452;-2.264;2023-03-14T05:33:36;4.60;99.90
6357;DHT22;3211;53.452;-2.264;2023-03-14T05:36:04;4.50;99.90
6357;DHT22;3211;53.452;-2.264;2023-03-14T05:38:33;4.50;99.90
6357;DHT22;3211;53.452;-2.264;2023-03-14T05:40:59;4.50;99.90
6357;DHT22;3211;53.452;-2.264;2023-03-14T05:43:26;4.60;99.90
6357;DHT22;3211;53.452;-2.264;2023-03-14T05:45:53;4.60;99.90
6357;DHT22;3211;53.452;-2.264;2023-03-14T05:48:20;4.50;99.90
6357;DHT22;3211;53.452;-2.264;2023-03-14T05:50:47;4.40;99.90
6357;DHT22;3211;53.452;-2.264;2023-03-14T05:53:14;4.30;99.90
6357;DHT22;3211;53.452;-2.264;2023-03-14T05:55:43;4.20;99.90
6357;DHT22;3211;53.452;-2.264;2023-03-14T05:58:10;4.20;99.90
6357;DHT22;3211;53.452;-2.264;2023-03-14T06:00:36;4.20;99.90
6357;DHT22;3211;53.452;-2.264;2023-03-14T06:03:03;4.20;99.90
6357;DHT22;3211;53.452;-2.264;2023-03-14T06:05:30;4.20;99.90
6357;DHT22;3211;53.452;-2.264;2023-03-14T06:07:57;4.20;99.90
6357;DHT22;3211;53.452;-2.264;2023-03-14T06:10:24;4.10;99.90
6357;DHT22;3211;53.452;-2.264;2023-03-14T06:12:52;4.00;99.90
6357;DHT22;3211;53.452;-2.264;2023-03-14T06:15:19;4.10;99.90
6357;DHT22;3211;53.452;-2.264;2023-03-14T06:17:46;3.90;99.90
6357;DHT22;3211;53.452;-2.264;2023-03-14T06:20:13;3.70;99.90
6357;DHT22;3211;53.452;-2.264;2023-03-14T06:22:40;3.70;99.90
6357;DHT22;3211;53.452;-2.264;2023-03-14T06:25:08;3.50;99.90
6357;DHT22;3211;53.452;-2.264;2023-03-14T06:27:35;3.60;99.90
6357;DHT22;3211;53.452;-2.264;2023-03-14T06:30:04;3.70;99.90
6357;DHT22;3211;53.452;-2.264;2023-03-14T06:32:31;3.50;99.90
6357;DHT22;3211;53.452;-2.264;2023-03-14T06:34:58;3.60;99.90
6357;DHT22;3211;53.452;-2.264;2023-03-14T06:37:26;3.60;99.90
6357;DHT22;3211;53.452;-2.264;2023-03-14T06:39:54;3.50;99.90
6357;DHT22;3211;53.452;-2.264;2023-03-14T06:42:21;3.40;99.90
6357;DHT22;3211;53.452;-2.264;2023-03-14T06:44:48;3.40;99.90
6357;DHT22;3211;53.452;-2.264;2023-03-14T06:47:16;3.60;99.90
6357;DHT22;3211;53.452;-2.264;2023-03-14T06:49:43;3.40;99.90
6357;DHT22;3211;53.452;-2.264;2023-03-14T06:52:10;3.50;99.90
6357;DHT22;3211;53.452;-2.264;2023-03-14T06:54:37;3.50;99.90
6357;DHT22;3211;53.452;-2.264;2023-03-14T06:57:04;3.60;99.90
6357;DHT22;3211;53.452;-2.264;2023-03-14T06:59:31;3.70;99.90
6357;DHT22;3211;53.452;-2.264;2023-03-14T07:01:58;3.80;99.90
6357;DHT22;3211;53.452;-2.264;2023-03-14T07:04:26;3.70;99.90
6357;DHT22;3211;53.452;-2.264;2023-03-14T07:06:53;3.80;99.90
6357;DHT22;3211;53.452;-2.264;2023-03-14T07:09:20;3.70;99.90
6357;DHT22;3211;53.452;-2.264;2023-03-14T07:11:47;3.70;99.90
6357;DHT22;3211;53.452;-2.264;2023-03-14T07:14:14;3.80;99.90
6357;DHT22;3211;53.452;-2.264;2023-03-14T07:16:41;3.50;99.90
6357;DHT22;3211;53.452;-2.264;2023-03-14T07:19:08;3.30;99.90
6357;DHT22;3211;53.452;-2.264;2023-03-14T07:21:36;3.30;99.90
6357;DHT22;3211;53.452;-2.264;2023-03-14T07:24:03;3.20;99.90
6357;DHT22;3211;53.452;-2.264;2023-03-14T07:26:30;3.30;99.90
6357;DHT22;3211;53.452;-2.264;2023-03-14T07:28:57;3.20;99.90
6357;DHT22;3211;53.452;-2.264;2023-03-14T07:31:24;3.30;99.90
6357;DHT22;3211;53.452;-2.264;2023-03-14T07:33:51;3.40;99.90
6357;DHT22;3211;53.452;-2.264;2023-03-14T07:36:18;3.50;99.90
6357;DHT22;3211;53.452;-2.264;2023-03-14T07:38:46;3.40;99.90
6357;DHT22;3211;53.452;-2.264;2023-03-14T07:41:13;3.30;99.90
6357;DHT22;3211;53.452;-2.264;2023-03-14T07:43:41;3.40;99.90
6357;DHT22;3211;53.452;-2.264;2023-03-14T07:46:08;3.50;99.90
6357;DHT22;3211;53.452;-2.264;2023-03-14T07:48:35;3.50;99.90
6357;DHT22;3211;53.452;-2.264;2023-03-14T07:51:02;3.80;99.90
6357;DHT22;3211;53.452;-2.264;2023-03-14T07:53:29;3.90;99.90
6357;DHT22;3211;53.452;-2.264;2023-03-14T07:55:57;4.20;99.90
6357;DHT22;3211;53.452;-2.264;2023-03-14T07:58:24;4.20;99.90
6357;DHT22;3211;53.452;-2.264;2023-03-14T08:00:52;4.40;99.90
6357;DHT22;3211;53.452;-2.264;2023-03-14T08:03:19;4.40;99.90
6357;DHT22;3211;53.452;-2.264;2023-03-14T08:05:47;4.20;99.90
6357;DHT22;3211;53.452;-2.264;2023-03-14T08:08:14;4.40;99.90
6357;DHT22;3211;53.452;-2.264;2023-03-14T08:10:41;4.40;99.90
6357;DHT22;3211;53.452;-2.264;2023-03-14T08:13:10;4.40;99.90
6357;DHT22;3211;53.452;-2.264;2023-03-14T08:15:37;4.30;99.90
6357;DHT22;3211;53.452;-2.264;2023-03-14T08:18:05;4.20;99.90
6357;DHT22;3211;53.452;-2.264;2023-03-14T08:20:32;4.10;99.90
6357;DHT22;3211;53.452;-2.264;2023-03-14T08:23:00;4.50;99.90
6357;DHT22;3211;53.452;-2.264;2023-03-14T08:25:28;4.50;99.90
6357;DHT22;3211;53.452;-2.264;2023-03-14T08:27:55;4.40;99.90
6357;DHT22;3211;53.452;-2.264;2023-03-14T08:30:23;4.40;99.90
6357;DHT22;3211;53.452;-2.264;2023-03-14T08:32:50;4.50;99.90
6357;DHT22;3211;53.452;-2.264;2023-03-14T08:35:18;4.40;99.90
6357;DHT22;3211;53.452;-2.264;2023-03-14T08:37:45;4.70;99.90
6357;DHT22;3211;53.452;-2.264;2023-03-14T08:40:13;4.90;99.90
6357;DHT22;3211;53.452;-2.264;2023-03-14T08:42:41;5.20;99.90
6357;DHT22;3211;53.452;-2.264;2023-03-14T08:45:10;5.40;99.90
6357;DHT22;3211;53.452;-2.264;2023-03-14T08:47:39;5.10;99.90
6357;DHT22;3211;53.452;-2.264;2023-03-14T08:50:07;4.90;91.10
6357;DHT22;3211;53.452;-2.264;2023-03-14T08:52:34;5.10;94.70
6357;DHT22;3211;53.452;-2.264;2023-03-14T08:55:03;4.90;98.80
6357;DHT22;3211;53.452;-2.264;2023-03-14T08:57:31;4.80;99.90
6357;DHT22;3211;53.452;-2.264;2023-03-14T08:59:58;4.70;99.90
6357;DHT22;3211;53.452;-2.264;2023-03-14T09:02:25;4.60;99.90
6357;DHT22;3211;53.452;-2.264;2023-03-14T09:04:54;4.70;99.90
6357;DHT22;3211;53.452;-2.264;2023-03-14T09:07:21;4.50;98.40
6357;DHT22;3211;53.452;-2.264;2023-03-14T09:09:48;4.60;96.60
6357;DHT22;3211;53.452;-2.264;2023-03-14T09:12:15;4.60;99.90
6357;DHT22;3211;53.452;-2.264;2023-03-14T09:14:41;4.70;99.90
6357;DHT22;3211;53.452;-2.264;2023-03-14T09:17:08;4.80;99.90
6357;DHT22;3211;53.452;-2.264;2023-03-14T09:19:35;4.90;99.90
6357;DHT22;3211;53.452;-2.264;2023-03-14T09:22:04;4.80;88.40
6357;DHT22;3211;53.452;-2.264;2023-03-14T09:24:31;5.00;91.60
6357;DHT22;3211;53.452;-2.264;2023-03-14T09:26:58;5.00;86.10
6357;DHT22;3211;53.452;-2.264;2023-03-14T09:29:25;5.00;88.00
6357;DHT22;3211;53.452;-2.264;2023-03-14T09:31:52;4.70;45.60
6357;DHT22;3211;53.452;-2.264;2023-03-14T09:34:19;4.80;49.90
6357;DHT22;3211;53.452;-2.264;2023-03-14T09:36:45;4.90;39.10
6357;DHT22;3211;53.452;-2.264;2023-03-14T09:39:14;5.00;45.00
6357;DHT22;3211;53.452;-2.264;2023-03-14T09:41:44;4.90;41.20
6357;DHT22;3211;53.452;-2.264;2023-03-14T09:44:15;4.90;44.60
6357;DHT22;3211;53.452;-2.264;2023-03-14T09:46:45;4.90;32.80
6357;DHT22;3211;53.452;-2.264;2023-03-14T09:49:20;5.00;43.50
6357;DHT22;3211;53.452;-2.264;2023-03-14T09:51:49;5.30;52.50
6357;DHT22;3211;53.452;-2.264;2023-03-14T09:54:28;5.10;40.30
6357;DHT22;3211;53.452;-2.264;2023-03-14T09:56:56;5.10;40.70
6357;DHT22;3211;53.452;-2.264;2023-03-14T09:59:23;5.30;42.90
6357;DHT22;3211;53.452;-2.264;2023-03-14T10:01:52;5.60;46.30
6357;DHT22;3211;53.452;-2.264;2023-03-14T10:04:21;5.50;40.40
6357;DHT22;3211;53.452;-2.264;2023-03-14T10:06:49;5.80;50.90
6357;DHT22;3211;53.452;-2.264;2023-03-14T10:09:21;6.00;39.70
6357;DHT22;3211;53.452;-2.264;2023-03-14T10:11:53;6.10;36.80
6357;DHT22;3211;53.452;-2.264;2023-03-14T10:14:29;6.10;28.80
6357;DHT22;3211;53.452;-2.264;2023-03-14T10:17:05;6.30;27.20
6357;DHT22;3211;53.452;-2.264;2023-03-14T10:19:33;6.50;24.50
6357;DHT22;3211;53.452;-2.264;2023-03-14T10:22:02;6.50;14.80
6357;DHT22;3211;53.452;-2.264;2023-03-14T10:24:32;6.20;5.10
6357;DHT22;3211;53.452;-2.264;2023-03-14T10:27:01;6.40;19.50
6357;DHT22;3211;53.452;-2.264;2023-03-14T10:29:29;6.50;12.30
6357;DHT22;3211;53.452;-2.264;2023-03-14T10:31:58;6.80;15.80
6357;DHT22;3211;53.452;-2.264;2023-03-14T10:34:29;7.30;6.70
6357;DHT22;3211;53.452;-2.264;2023-03-14T10:36:57;7.70;2.30
6357;DHT22;3211;53.452;-2.264;2023-03-14T10:39:32;7.70;1.00
6357;DHT22;3211;53.452;-2.264;2023-03-14T10:42:06;7.50;2.50
6357;DHT22;3211;53.452;-2.264;2023-03-14T10:44:39;7.20;1.00
6357;DHT22;3211;53.452;-2.264;2023-03-14T10:47:12;6.70;1.00
6357;DHT22;3211;53.452;-2.264;2023-03-14T10:49:41;6.60;2.20
6357;DHT22;3211;53.452;-2.264;2023-03-14T10:52:20;6.40;1.20
6357;DHT22;3211;53.452;-2.264;2023-03-14T10:54:54;6.40;11.20
6357;DHT22;3211;53.452;-2.264;2023-03-14T10:57:23;6.40;5.60
6357;DHT22;3211;53.452;-2.264;2023-03-14T10:59:51;6.30;10.00
6357;DHT22;3211;53.452;-2.264;2023-03-14T11:02:32;6.20;26.50
6357;DHT22;3211;53.452;-2.264;2023-03-14T11:05:12;5.90;46.10
6357;DHT22;3211;53.452;-2.264;2023-03-14T11:07:43;5.80;85.20
6357;DHT22;3211;53.452;-2.264;2023-03-14T11:10:18;5.70;92.60
6357;DHT22;3211;53.452;-2.264;2023-03-14T11:12:55;5.70;99.90
6357;DHT22;3211;53.452;-2.264;2023-03-14T11:15:31;5.80;99.90
6357;DHT22;3211;53.452;-2.264;2023-03-14T11:18:28;5.80;99.90
6357;DHT22;3211;53.452;-2.264;2023-03-14T11:21:02;5.70;99.90
6357;DHT22;3211;53.452;-2.264;2023-03-14T11:23:41;5.80;99.90
6357;DHT22;3211;53.452;-2.264;2023-03-14T11:26:21;5.90;99.90
6357;DHT22;3211;53.452;-2.264;2023-03-14T11:28:57;6.20;99.90
6357;DHT22;3211;53.452;-2.264;2023-03-14T11:31:26;7.00;99.90
6357;DHT22;3211;53.452;-2.264;2023-03-14T11:33:56;7.40;99.90
6357;DHT22;3211;53.452;-2.264;2023-03-14T11:36:29;7.80;99.90
6357;DHT22;3211;53.452;-2.264;2023-03-14T11:38:59;7.50;77.80
6357;DHT22;3211;53.452;-2.264;2023-03-14T11:41:31;7.40;92.60
6357;DHT22;3211;53.452;-2.264;2023-03-14T11:44:03;7.10;96.30
6357;DHT22;3211;53.452;-2.264;2023-03-14T11:46:34;6.70;97.30
6357;DHT22;3211;53.452;-2.264;2023-03-14T11:49:05;6.70;99.90
6357;DHT22;3211;53.452;-2.264;2023-03-14T11:51:35;6.50;99.90
6357;DHT22;3211;53.452;-2.264;2023-03-14T11:54:07;6.50;99.90
6357;DHT22;3211;53.452;-2.264;2023-03-14T11:56:45;6.50;99.90
6357;DHT22;3211;53.452;-2.264;2023-03-14T11:59:17;6.40;99.90
6357;DHT22;3211;53.452;-2.264;2023-03-14T12:01:52;6.40;99.90
6357;DHT22;3211;53.452;-2.264;2023-03-14T12:04:28;6.40;99.90
6357;DHT22;3211;53.452;-2.264;2023-03-14T12:06:57;6.30;99.90
6357;DHT22;3211;53.452;-2.264;2023-03-14T12:09:29;6.20;99.90
6357;DHT22;3211;53.452;-2.264;2023-03-14T12:12:00;6.10;99.90
6357;DHT22;3211;53.452;-2.264;2023-03-14T12:14:30;5.80;97.90
6357;DHT22;3211;53.452;-2.264;2023-03-14T12:17:04;5.70;95.10
6357;DHT22;3211;53.452;-2.264;2023-03-14T12:19:34;5.60;93.60
6357;DHT22;3211;53.452;-2.264;2023-03-14T12:22:32;5.90;99.90
6357;DHT22;3211;53.452;-2.264;2023-03-14T12:25:15;6.00;97.60
6357;DHT22;3211;53.452;-2.264;2023-03-14T12:30:29;6.40;99.90
6357;DHT22;3211;53.452;-2.264;2023-03-14T12:33:31;6.10;98.80
6357;DHT22;3211;53.452;-2.264;2023-03-14T12:39:05;5.50;82.30
6357;DHT22;3211;53.452;-2.264;2023-03-14T12:41:38;5.60;82.50
6357;DHT22;3211;53.452;-2.264;2023-03-14T12:44:43;5.50;84.90
6357;DHT22;3211;53.452;-2.264;2023-03-14T12:47:45;5.30;92.00
6357;DHT22;3211;53.452;-2.264;2023-03-14T12:50:20;5.40;98.60
6357;DHT22;3211;53.452;-2.264;2023-03-14T12:56:06;5.50;99.90
6357;DHT22;3211;53.452;-2.264;2023-03-14T12:58:39;5.60;99.90
6357;DHT22;3211;53.452;-2.264;2023-03-14T13:01:17;5.70;99.90
6357;DHT22;3211;53.452;-2.264;2023-03-14T13:03:47;6.00;99.90
6357;DHT22;3211;53.452;-2.264;2023-03-14T13:06:47;6.10;99.90
6357;DHT22;3211;53.452;-2.264;2023-03-14T13:09:45;6.00;99.90
6357;DHT22;3211;53.452;-2.264;2023-03-14T13:12:17;6.10;99.90
6357;DHT22;3211;53.452;-2.264;2023-03-14T13:14:46;5.90;97.90
6357;DHT22;3211;53.452;-2.264;2023-03-14T13:17:22;6.00;98.10
6357;DHT22;3211;53.452;-2.264;2023-03-14T13:19:52;5.90;98.60
6357;DHT22;3211;53.452;-2.264;2023-03-14T13:22:23;6.00;94.30
6357;DHT22;3211;53.452;-2.264;2023-03-14T13:24:59;6.10;96.10
6357;DHT22;3211;53.452;-2.264;2023-03-14T13:27:26;5.90;99.90
6357;DHT22;3211;53.452;-2.264;2023-03-14T13:29:53;5.90;99.90
6357;DHT22;3211;53.452;-2.264;2023-03-14T13:32:27;5.60;99.90
6357;DHT22;3211;53.452;-2.264;2023-03-14T13:34:56;5.40;99.90
6357;DHT22;3211;53.452;-2.264;2023-03-14T13:37:24;5.50;99.90
6357;DHT22;3211;53.452;-2.264;2023-03-14T13:39:52;5.30;99.90
6357;DHT22;3211;53.452;-2.264;2023-03-14T13:42:21;5.30;99.90
6357;DHT22;3211;53.452;-2.264;2023-03-14T13:44:52;5.10;99.90
6357;DHT22;3211;53.452;-2.264;2023-03-14T13:47:23;5.00;99.90
6357;DHT22;3211;53.452;-2.264;2023-03-14T13:49:51;5.00;99.90
6357;DHT22;3211;53.452;-2.264;2023-03-14T13:52:23;5.00;99.90
6357;DHT22;3211;53.452;-2.264;2023-03-14T13:54:53;5.10;99.90
6357;DHT22;3211;53.452;-2.264;2023-03-14T13:57:19;5.20;99.90
6357;DHT22;3211;53.452;-2.264;2023-03-14T13:59:58;5.00;98.70
6357;DHT22;3211;53.452;-2.264;2023-03-14T14:02:27;5.00;99.90
6357;DHT22;3211;53.452;-2.264;2023-03-14T14:04:55;5.00;99.90
6357;DHT22;3211;53.452;-2.264;2023-03-14T14:07:22;5.00;99.90
6357;DHT22;3211;53.452;-2.264;2023-03-14T14:09:51;5.00;99.90
6357;DHT22;3211;53.452;-2.264;2023-03-14T14:12:23;5.10;99.90
6357;DHT22;3211;53.452;-2.264;2023-03-14T14:14:56;5.00;99.90
6357;DHT22;3211;53.452;-2.264;2023-03-14T14:17:28;5.00;99.90
6357;DHT22;3211;53.452;-2.264;2023-03-14T14:19:57;4.70;99.90
6357;DHT22;3211;53.452;-2.264;2023-03-14T14:22:25;4.60;99.90
6357;DHT22;3211;53.452;-2.264;2023-03-14T14:24:53;4.50;99.90
6357;DHT22;3211;53.452;-2.264;2023-03-14T14:27:27;4.70;99.90
6357;DHT22;3211;53.452;-2.264;2023-03-14T14:29:58;4.40;99.90
6357;DHT22;3211;53.452;-2.264;2023-03-14T14:32:33;4.30;99.90
6357;DHT22;3211;53.452;-2.264;2023-03-14T14:35:01;4.20;99.90
6357;DHT22;3211;53.452;-2.264;2023-03-14T14:37:31;3.70;99.90
6357;DHT22;3211;53.452;-2.264;2023-03-14T14:40:00;3.40;99.90
6357;DHT22;3211;53.452;-2.264;2023-03-14T14:42:30;3.30;99.90
6357;DHT22;3211;53.452;-2.264;2023-03-14T14:44:58;3.00;99.90
6357;DHT22;3211;53.452;-2.264;2023-03-14T14:47:28;3.30;99.90
6357;DHT22;3211;53.452;-2.264;2023-03-14T14:49:59;3.30;99.90
6357;DHT22;3211;53.452;-2.264;2023-03-14T14:52:40;3.20;99.90
6357;DHT22;3211;53.452;-2.264;2023-03-14T14:55:13;3.30;99.90
6357;DHT22;3211;53.452;-2.264;2023-03-14T14:57:49;3.40;99.90
6357;DHT22;3211;53.452;-2.264;2023-03-14T15:00:19;3.60;99.90
6357;DHT22;3211;53.452;-2.264;2023-03-14T15:02:49;3.60;99.90
6357;DHT22;3211;53.452;-2.264;2023-03-14T15:05:19;3.60;99.90
6357;DHT22;3211;53.452;-2.264;2023-03-14T15:07:46;3.70;99.90
6357;DHT22;3211;53.452;-2.264;2023-03-14T15:10:17;3.80;99.90
6357;DHT22;3211;53.452;-2.264;2023-03-14T15:12:44;3.70;99.90
6357;DHT22;3211;53.452;-2.264;2023-03-14T15:15:13;3.60;99.90
6357;DHT22;3211;53.452;-2.264;2023-03-14T15:17:40;3.50;99.90
6357;DHT22;3211;53.452;-2.264;2023-03-14T15:20:13;3.40;99.90
6357;DHT22;3211;53.452;-2.264;2023-03-14T15:22:40;3.40;99.90
6357;DHT22;3211;53.452;-2.264;2023-03-14T15:25:08;3.50;99.90
6357;DHT22;3211;53.452;-2.264;2023-03-14T15:27:36;3.50;99.90
6357;DHT22;3211;53.452;-2.264;2023-03-14T15:30:10;3.40;99.90
6357;DHT22;3211;53.452;-2.264;2023-03-14T15:32:37;3.50;99.90
6357;DHT22;3211;53.452;-2.264;2023-03-14T15:35:05;3.50;99.90
6357;DHT22;3211;53.452;-2.264;2023-03-14T15:37:34;3.50;99.90
6357;DHT22;3211;53.452;-2.264;2023-03-14T15:40:02;3.50;99.90
6357;DHT22;3211;53.452;-2.264;2023-03-14T15:42:35;3.50;99.90
6357;DHT22;3211;53.452;-2.264;2023-03-14T15:45:03;3.70;99.90
6357;DHT22;3211;53.452;-2.264;2023-03-14T15:47:30;3.60;99.90
6357;DHT22;3211;53.452;-2.264;2023-03-14T15:49:57;3.70;99.90
6357;DHT22;3211;53.452;-2.264;2023-03-14T15:52:24;3.70;99.90
6357;DHT22;3211;53.452;-2.264;2023-03-14T15:54:52;3.60;99.90
6357;DHT22;3211;53.452;-2.264;2023-03-14T15:57:19;3.60;99.90
6357;DHT22;3211;53.452;-2.264;2023-03-14T15:59:46;3.60;99.90
6357;DHT22;3211;53.452;-2.264;2023-03-14T16:02:13;3.80;99.90
6357;DHT22;3211;53.452;-2.264;2023-03-14T16:04:40;3.90;99.90
6357;DHT22;3211;53.452;-2.264;2023-03-14T16:07:07;5.50;99.90
6357;DHT22;3211;53.452;-2.264;2023-03-14T16:09:35;8.80;99.90
6357;DHT22;3211;53.452;-2.264;2023-03-14T16:12:03;11.40;62.10
6357;DHT22;3211;53.452;-2.264;2023-03-14T16:14:33;9.10;31.50
6357;DHT22;3211;53.452;-2.264;2023-03-14T16:16:59;6.90;98.00
6357;DHT22;3211;53.452;-2.264;2023-03-14T16:19:26;6.40;99.90
6357;DHT22;3211;53.452;-2.264;2023-03-14T16:21:54;9.10;99.90
6357;DHT22;3211;53.452;-2.264;2023-03-14T16:24:21;8.90;80.80